Terminal Aerodrome Forecast
Issued by NWS Pocatello, ID

Home | Current Version | Previous Version | Text Only | Print | Product List | Glossary On
Versions: 1 2 3 4 5 6 7 8 9 10 11 12 13 14 15 16
000
FTUS45 KPIH 290520
TAFPIH
TAF
KPIH 290520Z 2906/3006 VRB06KT P6SM SCT110 BKN150
     FM291200 VRB05KT P6SM VCSH BKN100
     FM291900 23016G26KT P6SM VCSH BKN120
     FM300300 19007KT P6SM -SHRA OVC080=

USA.gov is the U.S. government's official web portal to all federal, state and local government web resources and services.